sensor_id;sensor_type;location;lat;lon;timestamp;P1;durP1;ratioP1;P2;durP2;ratioP2
21032;SDS011;10675;47.976;7.824;2022-10-20T00:01:14;7.80;;;4.70;;
21032;SDS011;10675;47.976;7.824;2022-10-20T00:03:41;5.57;;;4.00;;
21032;SDS011;10675;47.976;7.824;2022-10-20T00:06:08;6.97;;;4.50;;
21032;SDS011;10675;47.976;7.824;2022-10-20T00:08:35;6.63;;;4.60;;
21032;SDS011;10675;47.976;7.824;2022-10-20T00:11:01;7.30;;;4.50;;
21032;SDS011;10675;47.976;7.824;2022-10-20T00:13:27;8.83;;;4.90;;
21032;SDS011;10675;47.976;7.824;2022-10-20T00:15:53;11.90;;;4.53;;
21032;SDS011;10675;47.976;7.824;2022-10-20T00:18:20;6.40;;;4.30;;
21032;SDS011;10675;47.976;7.824;2022-10-20T00:20:47;11.17;;;4.57;;
21032;SDS011;10675;47.976;7.824;2022-10-20T00:23:13;7.10;;;4.60;;
21032;SDS011;10675;47.976;7.824;2022-10-20T00:25:39;6.27;;;4.53;;
21032;SDS011;10675;47.976;7.824;2022-10-20T00:28:05;7.77;;;4.50;;
21032;SDS011;10675;47.976;7.824;2022-10-20T00:30:32;7.47;;;4.37;;
21032;SDS011;10675;47.976;7.824;2022-10-20T00:32:58;6.47;;;4.30;;
21032;SDS011;10675;47.976;7.824;2022-10-20T00:35:24;5.83;;;4.00;;
21032;SDS011;10675;47.976;7.824;2022-10-20T00:37:49;5.17;;;3.80;;
21032;SDS011;10675;47.976;7.824;2022-10-20T00:40:15;7.60;;;4.00;;
21032;SDS011;10675;47.976;7.824;2022-10-20T00:42:44;4.97;;;3.43;;
21032;SDS011;10675;47.976;7.824;2022-10-20T00:45:14;5.57;;;3.77;;
21032;SDS011;10675;47.976;7.824;2022-10-20T00:47:44;4.53;;;3.40;;
21032;SDS011;10675;47.976;7.824;2022-10-20T00:50:22;4.50;;;3.40;;
21032;SDS011;10675;47.976;7.824;2022-10-20T00:52:52;4.33;;;3.43;;
21032;SDS011;10675;47.976;7.824;2022-10-20T00:55:20;4.77;;;3.60;;
21032;SDS011;10675;47.976;7.824;2022-10-20T00:57:53;5.40;;;3.40;;
21032;SDS011;10675;47.976;7.824;2022-10-20T01:00:21;5.20;;;3.60;;
21032;SDS011;10675;47.976;7.824;2022-10-20T01:02:51;6.43;;;3.70;;
21032;SDS011;10675;47.976;7.824;2022-10-20T01:05:18;8.63;;;3.37;;
21032;SDS011;10675;47.976;7.824;2022-10-20T01:07:44;7.67;;;3.70;;
21032;SDS011;10675;47.976;7.824;2022-10-20T01:10:09;6.20;;;4.07;;
21032;SDS011;10675;47.976;7.824;2022-10-20T01:15:30;6.83;;;3.80;;
21032;SDS011;10675;47.976;7.824;2022-10-20T01:18:17;7.03;;;3.70;;
21032;SDS011;10675;47.976;7.824;2022-10-20T01:26:42;5.90;;;3.23;;
21032;SDS011;10675;47.976;7.824;2022-10-20T01:29:44;7.03;;;3.77;;
21032;SDS011;10675;47.976;7.824;2022-10-20T01:35:43;5.63;;;3.73;;
21032;SDS011;10675;47.976;7.824;2022-10-20T01:41:08;7.50;;;3.93;;
21032;SDS011;10675;47.976;7.824;2022-10-20T01:43:35;6.10;;;3.67;;
21032;SDS011;10675;47.976;7.824;2022-10-20T01:46:03;12.37;;;4.07;;
21032;SDS011;10675;47.976;7.824;2022-10-20T01:48:32;5.10;;;4.00;;
21032;SDS011;10675;47.976;7.824;2022-10-20T01:51:01;6.30;;;3.87;;
21032;SDS011;10675;47.976;7.824;2022-10-20T01:53:28;4.43;;;3.50;;
21032;SDS011;10675;47.976;7.824;2022-10-20T01:55:54;6.27;;;4.00;;
21032;SDS011;10675;47.976;7.824;2022-10-20T02:00:52;4.50;;;3.70;;
21032;SDS011;10675;47.976;7.824;2022-10-20T02:03:27;5.53;;;3.73;;
21032;SDS011;10675;47.976;7.824;2022-10-20T02:06:16;7.67;;;4.30;;
21032;SDS011;10675;47.976;7.824;2022-10-20T02:08:54;6.93;;;4.10;;
21032;SDS011;10675;47.976;7.824;2022-10-20T02:14:13;9.20;;;4.20;;
21032;SDS011;10675;47.976;7.824;2022-10-20T02:16:46;8.63;;;3.97;;
21032;SDS011;10675;47.976;7.824;2022-10-20T02:19:19;6.33;;;4.47;;
21032;SDS011;10675;47.976;7.824;2022-10-20T02:21:48;5.40;;;3.27;;
21032;SDS011;10675;47.976;7.824;2022-10-20T02:24:15;4.97;;;3.73;;
21032;SDS011;10675;47.976;7.824;2022-10-20T02:26:43;5.93;;;3.60;;
21032;SDS011;10675;47.976;7.824;2022-10-20T02:29:10;8.10;;;4.07;;
21032;SDS011;10675;47.976;7.824;2022-10-20T02:31:38;4.93;;;3.93;;
21032;SDS011;10675;47.976;7.824;2022-10-20T02:34:05;9.27;;;4.03;;
21032;SDS011;10675;47.976;7.824;2022-10-20T02:36:35;5.83;;;4.10;;
21032;SDS011;10675;47.976;7.824;2022-10-20T02:39:05;7.87;;;4.33;;
21032;SDS011;10675;47.976;7.824;2022-10-20T02:41:31;6.37;;;4.30;;
21032;SDS011;10675;47.976;7.824;2022-10-20T02:43:57;7.13;;;4.03;;
21032;SDS011;10675;47.976;7.824;2022-10-20T02:46:23;5.87;;;4.77;;
21032;SDS011;10675;47.976;7.824;2022-10-20T02:48:48;8.47;;;4.80;;
21032;SDS011;10675;47.976;7.824;2022-10-20T02:51:14;6.53;;;4.73;;
21032;SDS011;10675;47.976;7.824;2022-10-20T02:53:41;5.80;;;4.43;;
21032;SDS011;10675;47.976;7.824;2022-10-20T02:56:07;6.33;;;4.40;;
21032;SDS011;10675;47.976;7.824;2022-10-20T02:58:32;6.77;;;4.43;;
21032;SDS011;10675;47.976;7.824;2022-10-20T03:00:58;7.23;;;4.13;;
21032;SDS011;10675;47.976;7.824;2022-10-20T03:03:24;7.20;;;4.47;;
21032;SDS011;10675;47.976;7.824;2022-10-20T03:05:49;8.17;;;4.50;;
21032;SDS011;10675;47.976;7.824;2022-10-20T03:08:15;4.70;;;3.90;;
21032;SDS011;10675;47.976;7.824;2022-10-20T03:10:40;6.10;;;3.53;;
21032;SDS011;10675;47.976;7.824;2022-10-20T03:13:07;5.03;;;3.50;;
21032;SDS011;10675;47.976;7.824;2022-10-20T03:15:33;5.33;;;3.47;;
21032;SDS011;10675;47.976;7.824;2022-10-20T03:17:59;5.03;;;3.40;;
21032;SDS011;10675;47.976;7.824;2022-10-20T03:20:24;4.90;;;3.23;;
21032;SDS011;10675;47.976;7.824;2022-10-20T03:22:50;5.30;;;3.70;;
21032;SDS011;10675;47.976;7.824;2022-10-20T03:25:16;4.20;;;3.20;;
21032;SDS011;10675;47.976;7.824;2022-10-20T03:27:41;5.87;;;3.53;;
21032;SDS011;10675;47.976;7.824;2022-10-20T03:30:07;5.33;;;3.53;;
21032;SDS011;10675;47.976;7.824;2022-10-20T03:32:33;5.40;;;3.47;;
21032;SDS011;10675;47.976;7.824;2022-10-20T03:34:59;4.40;;;2.97;;
21032;SDS011;10675;47.976;7.824;2022-10-20T03:37:24;4.30;;;3.30;;
21032;SDS011;10675;47.976;7.824;2022-10-20T03:39:50;6.33;;;3.80;;
21032;SDS011;10675;47.976;7.824;2022-10-20T03:42:15;4.40;;;3.33;;
21032;SDS011;10675;47.976;7.824;2022-10-20T03:44:41;5.60;;;3.17;;
21032;SDS011;10675;47.976;7.824;2022-10-20T03:47:09;5.43;;;3.63;;
21032;SDS011;10675;47.976;7.824;2022-10-20T03:49:35;7.07;;;3.30;;
21032;SDS011;10675;47.976;7.824;2022-10-20T03:52:01;6.30;;;3.70;;
21032;SDS011;10675;47.976;7.824;2022-10-20T03:54:27;4.43;;;3.00;;
21032;SDS011;10675;47.976;7.824;2022-10-20T03:56:52;5.50;;;3.43;;
21032;SDS011;10675;47.976;7.824;2022-10-20T03:59:18;7.97;;;3.17;;
21032;SDS011;10675;47.976;7.824;2022-10-20T04:01:44;4.27;;;3.30;;
21032;SDS011;10675;47.976;7.824;2022-10-20T04:04:10;4.80;;;3.70;;
21032;SDS011;10675;47.976;7.824;2022-10-20T04:06:36;5.93;;;3.50;;
21032;SDS011;10675;47.976;7.824;2022-10-20T04:09:02;5.10;;;4.00;;
21032;SDS011;10675;47.976;7.824;2022-10-20T04:11:28;6.43;;;4.13;;
21032;SDS011;10675;47.976;7.824;2022-10-20T04:13:55;6.20;;;3.30;;
21032;SDS011;10675;47.976;7.824;2022-10-20T04:16:20;6.90;;;3.60;;
21032;SDS011;10675;47.976;7.824;2022-10-20T04:18:46;6.47;;;3.67;;
21032;SDS011;10675;47.976;7.824;2022-10-20T04:21:12;4.83;;;4.00;;
21032;SDS011;10675;47.976;7.824;2022-10-20T04:23:37;5.80;;;4.13;;
21032;SDS011;10675;47.976;7.824;2022-10-20T04:26:06;5.67;;;3.90;;
21032;SDS011;10675;47.976;7.824;2022-10-20T04:28:36;7.33;;;3.97;;
21032;SDS011;10675;47.976;7.824;2022-10-20T04:31:02;6.53;;;3.73;;
21032;SDS011;10675;47.976;7.824;2022-10-20T04:33:28;4.40;;;3.03;;
21032;SDS011;10675;47.976;7.824;2022-10-20T04:35:57;6.10;;;3.77;;
21032;SDS011;10675;47.976;7.824;2022-10-20T04:38:23;4.30;;;3.50;;
21032;SDS011;10675;47.976;7.824;2022-10-20T04:40:53;9.43;;;4.47;;
21032;SDS011;10675;47.976;7.824;2022-10-20T04:43:19;6.77;;;3.80;;
21032;SDS011;10675;47.976;7.824;2022-10-20T04:45:45;5.90;;;3.67;;
21032;SDS011;10675;47.976;7.824;2022-10-20T04:48:10;7.50;;;4.20;;
21032;SDS011;10675;47.976;7.824;2022-10-20T04:50:36;5.77;;;4.00;;
21032;SDS011;10675;47.976;7.824;2022-10-20T04:53:01;3.80;;;3.33;;
21032;SDS011;10675;47.976;7.824;2022-10-20T04:55:27;6.57;;;4.20;;
21032;SDS011;10675;47.976;7.824;2022-10-20T04:57:52;4.90;;;3.50;;
21032;SDS011;10675;47.976;7.824;2022-10-20T05:00:18;7.77;;;3.90;;
21032;SDS011;10675;47.976;7.824;2022-10-20T05:02:43;5.40;;;3.57;;
21032;SDS011;10675;47.976;7.824;2022-10-20T05:05:09;6.70;;;3.80;;
21032;SDS011;10675;47.976;7.824;2022-10-20T05:07:34;5.20;;;3.93;;
21032;SDS011;10675;47.976;7.824;2022-10-20T05:10:00;6.00;;;4.20;;
21032;SDS011;10675;47.976;7.824;2022-10-20T05:12:26;6.67;;;3.93;;
21032;SDS011;10675;47.976;7.824;2022-10-20T05:14:52;8.73;;;4.43;;
21032;SDS011;10675;47.976;7.824;2022-10-20T05:17:17;5.43;;;3.80;;
21032;SDS011;10675;47.976;7.824;2022-10-20T05:19:43;5.23;;;3.90;;
21032;SDS011;10675;47.976;7.824;2022-10-20T05:22:09;4.70;;;3.73;;
21032;SDS011;10675;47.976;7.824;2022-10-20T05:24:35;5.43;;;3.50;;
21032;SDS011;10675;47.976;7.824;2022-10-20T05:27:01;5.83;;;4.00;;
21032;SDS011;10675;47.976;7.824;2022-10-20T05:29:26;5.07;;;3.57;;
21032;SDS011;10675;47.976;7.824;2022-10-20T05:31:52;5.87;;;3.67;;
21032;SDS011;10675;47.976;7.824;2022-10-20T05:34:17;5.53;;;3.53;;
21032;SDS011;10675;47.976;7.824;2022-10-20T05:36:43;5.97;;;4.27;;
21032;SDS011;10675;47.976;7.824;2022-10-20T05:39:09;5.90;;;3.57;;
21032;SDS011;10675;47.976;7.824;2022-10-20T05:41:35;10.23;;;3.70;;
21032;SDS011;10675;47.976;7.824;2022-10-20T05:44:01;5.57;;;3.87;;
21032;SDS011;10675;47.976;7.824;2022-10-20T05:46:29;6.13;;;3.77;;
21032;SDS011;10675;47.976;7.824;2022-10-20T05:48:58;6.47;;;3.90;;
21032;SDS011;10675;47.976;7.824;2022-10-20T05:51:26;7.57;;;4.33;;
21032;SDS011;10675;47.976;7.824;2022-10-20T05:53:55;6.90;;;3.87;;
21032;SDS011;10675;47.976;7.824;2022-10-20T05:56:21;6.57;;;3.77;;
21032;SDS011;10675;47.976;7.824;2022-10-20T05:58:47;6.67;;;4.27;;
21032;SDS011;10675;47.976;7.824;2022-10-20T06:01:14;5.77;;;3.87;;
21032;SDS011;10675;47.976;7.824;2022-10-20T06:03:49;6.57;;;3.83;;
21032;SDS011;10675;47.976;7.824;2022-10-20T06:06:17;6.13;;;4.20;;
21032;SDS011;10675;47.976;7.824;2022-10-20T06:08:44;5.80;;;3.90;;
21032;SDS011;10675;47.976;7.824;2022-10-20T06:11:11;4.60;;;3.70;;
21032;SDS011;10675;47.976;7.824;2022-10-20T06:13:37;4.83;;;3.70;;
21032;SDS011;10675;47.976;7.824;2022-10-20T06:16:03;5.80;;;3.93;;
21032;SDS011;10675;47.976;7.824;2022-10-20T06:18:30;6.93;;;4.37;;
21032;SDS011;10675;47.976;7.824;2022-10-20T06:21:00;5.80;;;3.87;;
21032;SDS011;10675;47.976;7.824;2022-10-20T06:23:26;6.53;;;3.87;;
21032;SDS011;10675;47.976;7.824;2022-10-20T06:25:52;5.90;;;4.20;;
21032;SDS011;10675;47.976;7.824;2022-10-20T06:28:17;7.40;;;4.20;;
21032;SDS011;10675;47.976;7.824;2022-10-20T06:30:43;8.70;;;4.20;;
21032;SDS011;10675;47.976;7.824;2022-10-20T06:33:08;5.67;;;4.30;;
21032;SDS011;10675;47.976;7.824;2022-10-20T06:35:36;6.93;;;3.83;;
21032;SDS011;10675;47.976;7.824;2022-10-20T06:38:02;8.20;;;3.80;;
21032;SDS011;10675;47.976;7.824;2022-10-20T06:40:28;5.10;;;3.80;;
21032;SDS011;10675;47.976;7.824;2022-10-20T06:42:53;19.43;;;4.30;;
21032;SDS011;10675;47.976;7.824;2022-10-20T06:45:19;6.10;;;3.57;;
21032;SDS011;10675;47.976;7.824;2022-10-20T06:47:44;7.37;;;3.73;;
21032;SDS011;10675;47.976;7.824;2022-10-20T06:50:10;9.00;;;3.97;;
21032;SDS011;10675;47.976;7.824;2022-10-20T06:52:35;5.70;;;4.03;;
21032;SDS011;10675;47.976;7.824;2022-10-20T06:55:01;5.37;;;4.10;;
21032;SDS011;10675;47.976;7.824;2022-10-20T06:57:29;4.77;;;3.57;;
21032;SDS011;10675;47.976;7.824;2022-10-20T06:59:55;8.40;;;3.87;;
21032;SDS011;10675;47.976;7.824;2022-10-20T07:02:21;5.93;;;3.93;;
21032;SDS011;10675;47.976;7.824;2022-10-20T07:04:48;7.50;;;4.53;;
21032;SDS011;10675;47.976;7.824;2022-10-20T07:07:14;6.83;;;3.80;;
21032;SDS011;10675;47.976;7.824;2022-10-20T07:09:39;6.70;;;3.93;;
21032;SDS011;10675;47.976;7.824;2022-10-20T07:12:05;4.37;;;3.70;;
21032;SDS011;10675;47.976;7.824;2022-10-20T07:14:30;6.77;;;4.00;;
21032;SDS011;10675;47.976;7.824;2022-10-20T07:16:56;6.40;;;4.20;;
21032;SDS011;10675;47.976;7.824;2022-10-20T07:19:21;8.27;;;4.60;;
21032;SDS011;10675;47.976;7.824;2022-10-20T07:21:47;7.97;;;4.53;;
21032;SDS011;10675;47.976;7.824;2022-10-20T07:24:13;8.80;;;4.90;;
21032;SDS011;10675;47.976;7.824;2022-10-20T07:26:40;7.17;;;4.20;;
21032;SDS011;10675;47.976;7.824;2022-10-20T07:29:06;7.53;;;4.50;;
21032;SDS011;10675;47.976;7.824;2022-10-20T07:31:36;5.93;;;4.57;;
21032;SDS011;10675;47.976;7.824;2022-10-20T07:34:07;7.57;;;4.60;;
21032;SDS011;10675;47.976;7.824;2022-10-20T07:36:34;7.57;;;4.30;;
21032;SDS011;10675;47.976;7.824;2022-10-20T07:39:04;6.90;;;4.63;;
21032;SDS011;10675;47.976;7.824;2022-10-20T07:41:30;6.10;;;4.27;;
21032;SDS011;10675;47.976;7.824;2022-10-20T07:43:56;5.87;;;4.20;;
21032;SDS011;10675;47.976;7.824;2022-10-20T07:46:22;8.27;;;4.57;;
21032;SDS011;10675;47.976;7.824;2022-10-20T07:48:48;9.40;;;5.00;;
21032;SDS011;10675;47.976;7.824;2022-10-20T07:53:46;7.17;;;4.20;;
21032;SDS011;10675;47.976;7.824;2022-10-20T07:56:12;7.43;;;4.80;;
21032;SDS011;10675;47.976;7.824;2022-10-20T07:58:39;6.97;;;4.27;;
21032;SDS011;10675;47.976;7.824;2022-10-20T08:01:05;8.73;;;4.70;;
21032;SDS011;10675;47.976;7.824;2022-10-20T08:03:31;7.87;;;5.60;;
21032;SDS011;10675;47.976;7.824;2022-10-20T08:05:56;6.93;;;5.43;;
21032;SDS011;10675;47.976;7.824;2022-10-20T08:08:22;7.90;;;5.60;;
21032;SDS011;10675;47.976;7.824;2022-10-20T08:10:48;12.73;;;5.77;;
21032;SDS011;10675;47.976;7.824;2022-10-20T08:13:13;12.90;;;5.67;;
21032;SDS011;10675;47.976;7.824;2022-10-20T08:15:39;11.10;;;5.77;;
21032;SDS011;10675;47.976;7.824;2022-10-20T08:18:04;7.83;;;5.63;;
21032;SDS011;10675;47.976;7.824;2022-10-20T08:20:30;7.90;;;5.60;;
21032;SDS011;10675;47.976;7.824;2022-10-20T08:22:56;9.23;;;5.73;;
21032;SDS011;10675;47.976;7.824;2022-10-20T08:25:22;8.73;;;5.70;;
21032;SDS011;10675;47.976;7.824;2022-10-20T08:27:48;8.30;;;4.90;;
21032;SDS011;10675;47.976;7.824;2022-10-20T08:30:14;7.13;;;4.60;;
21032;SDS011;10675;47.976;7.824;2022-10-20T08:32:40;9.10;;;4.33;;
21032;SDS011;10675;47.976;7.824;2022-10-20T08:35:06;7.07;;;5.03;;
21032;SDS011;10675;47.976;7.824;2022-10-20T08:37:32;8.40;;;4.43;;
21032;SDS011;10675;47.976;7.824;2022-10-20T08:39:57;9.70;;;4.23;;
21032;SDS011;10675;47.976;7.824;2022-10-20T08:42:24;7.70;;;4.30;;
21032;SDS011;10675;47.976;7.824;2022-10-20T08:44:50;6.27;;;4.07;;
21032;SDS011;10675;47.976;7.824;2022-10-20T08:49:54;9.50;;;4.70;;
21032;SDS011;10675;47.976;7.824;2022-10-20T08:52:20;8.57;;;4.53;;
21032;SDS011;10675;47.976;7.824;2022-10-20T08:54:49;6.93;;;4.60;;
21032;SDS011;10675;47.976;7.824;2022-10-20T08:57:21;5.63;;;4.33;;
21032;SDS011;10675;47.976;7.824;2022-10-20T08:59:50;9.37;;;5.17;;
21032;SDS011;10675;47.976;7.824;2022-10-20T09:02:17;6.43;;;4.97;;
21032;SDS011;10675;47.976;7.824;2022-10-20T09:04:46;7.17;;;4.57;;
21032;SDS011;10675;47.976;7.824;2022-10-20T09:07:37;12.07;;;4.77;;
21032;SDS011;10675;47.976;7.824;2022-10-20T09:10:06;6.00;;;4.23;;
21032;SDS011;10675;47.976;7.824;2022-10-20T09:12:55;6.13;;;4.40;;
21032;SDS011;10675;47.976;7.824;2022-10-20T09:15:21;7.93;;;4.40;;
21032;SDS011;10675;47.976;7.824;2022-10-20T09:17:52;6.13;;;3.93;;
21032;SDS011;10675;47.976;7.824;2022-10-20T09:20:24;6.20;;;4.07;;
21032;SDS011;10675;47.976;7.824;2022-10-20T09:22:57;5.10;;;3.87;;
21032;SDS011;10675;47.976;7.824;2022-10-20T09:25:23;5.40;;;4.00;;
21032;SDS011;10675;47.976;7.824;2022-10-20T09:27:51;5.87;;;4.07;;
21032;SDS011;10675;47.976;7.824;2022-10-20T09:30:22;5.50;;;3.80;;
21032;SDS011;10675;47.976;7.824;2022-10-20T09:32:57;7.43;;;4.00;;
21032;SDS011;10675;47.976;7.824;2022-10-20T09:37:54;4.47;;;3.90;;
21032;SDS011;10675;47.976;7.824;2022-10-20T09:40:26;4.90;;;3.87;;
21032;SDS011;10675;47.976;7.824;2022-10-20T09:42:59;5.00;;;3.83;;
21032;SDS011;10675;47.976;7.824;2022-10-20T09:45:34;6.87;;;4.10;;
21032;SDS011;10675;47.976;7.824;2022-10-20T09:50:45;7.43;;;2.73;;
21032;SDS011;10675;47.976;7.824;2022-10-20T09:53:19;6.47;;;3.40;;
21032;SDS011;10675;47.976;7.824;2022-10-20T09:55:51;7.90;;;2.90;;
21032;SDS011;10675;47.976;7.824;2022-10-20T09:58:27;4.67;;;2.57;;
21032;SDS011;10675;47.976;7.824;2022-10-20T10:01:02;5.27;;;2.80;;
21032;SDS011;10675;47.976;7.824;2022-10-20T10:03:41;7.50;;;2.73;;
21032;SDS011;10675;47.976;7.824;2022-10-20T10:06:19;5.10;;;2.67;;
21032;SDS011;10675;47.976;7.824;2022-10-20T10:08:58;4.28;;;2.92;;
21032;SDS011;10675;47.976;7.824;2022-10-20T10:11:34;8.13;;;2.95;;
21032;SDS011;10675;47.976;7.824;2022-10-20T10:14:01;6.50;;;3.25;;
21032;SDS011;10675;47.976;7.824;2022-10-20T10:16:27;6.43;;;3.03;;
21032;SDS011;10675;47.976;7.824;2022-10-20T10:19:05;5.47;;;2.63;;
21032;SDS011;10675;47.976;7.824;2022-10-20T10:21:44;5.10;;;2.83;;
21032;SDS011;10675;47.976;7.824;2022-10-20T10:24:35;4.40;;;3.07;;
21032;SDS011;10675;47.976;7.824;2022-10-20T10:29:54;6.40;;;2.80;;
21032;SDS011;10675;47.976;7.824;2022-10-20T10:32:44;6.57;;;3.22;;
21032;SDS011;10675;47.976;7.824;2022-10-20T10:35:57;6.43;;;3.00;;
21032;SDS011;10675;47.976;7.824;2022-10-20T10:38:00;3.55;;;2.70;;
21032;SDS011;10675;47.976;7.824;2022-10-20T10:46:14;4.60;;;2.83;;
21032;SDS011;10675;47.976;7.824;2022-10-20T10:56:58;4.13;;;3.30;;
21032;SDS011;10675;47.976;7.824;2022-10-20T10:59:30;5.07;;;2.70;;
21032;SDS011;10675;47.976;7.824;2022-10-20T11:02:08;4.23;;;2.70;;
21032;SDS011;10675;47.976;7.824;2022-10-20T11:05:21;3.40;;;2.97;;
21032;SDS011;10675;47.976;7.824;2022-10-20T11:10:45;3.23;;;2.47;;
21032;SDS011;10675;47.976;7.824;2022-10-20T11:16:22;4.20;;;2.33;;
21032;SDS011;10675;47.976;7.824;2022-10-20T11:19:08;7.35;;;3.03;;
21032;SDS011;10675;47.976;7.824;2022-10-20T11:27:19;4.15;;;2.67;;
21032;SDS011;10675;47.976;7.824;2022-10-20T11:29:54;4.90;;;2.90;;
21032;SDS011;10675;47.976;7.824;2022-10-20T11:32:30;4.20;;;2.50;;
21032;SDS011;10675;47.976;7.824;2022-10-20T11:35:20;3.55;;;2.85;;
21032;SDS011;10675;47.976;7.824;2022-10-20T11:41:01;6.90;;;3.33;;
21032;SDS011;10675;47.976;7.824;2022-10-20T12:04:54;6.10;;;3.60;;
21032;SDS011;10675;47.976;7.824;2022-10-20T12:07:48;4.60;;;3.33;;
21032;SDS011;10675;47.976;7.824;2022-10-20T12:13:38;6.47;;;4.05;;
21032;SDS011;10675;47.976;7.824;2022-10-20T12:16:08;8.30;;;4.13;;
21032;SDS011;10675;47.976;7.824;2022-10-20T12:18:34;8.65;;;4.85;;
21032;SDS011;10675;47.976;7.824;2022-10-20T12:21:04;7.95;;;4.63;;
21032;SDS011;10675;47.976;7.824;2022-10-20T12:28:57;6.10;;;4.00;;
21032;SDS011;10675;47.976;7.824;2022-10-20T12:31:24;5.65;;;4.22;;
21032;SDS011;10675;47.976;7.824;2022-10-20T12:34:28;9.27;;;4.37;;
21032;SDS011;10675;47.976;7.824;2022-10-20T12:37:46;7.55;;;3.78;;
21032;SDS011;10675;47.976;7.824;2022-10-20T12:42:32;6.93;;;3.83;;
21032;SDS011;10675;47.976;7.824;2022-10-20T12:45:03;6.23;;;4.00;;
21032;SDS011;10675;47.976;7.824;2022-10-20T12:47:32;6.60;;;3.73;;
21032;SDS011;10675;47.976;7.824;2022-10-20T12:52:37;7.10;;;3.67;;
21032;SDS011;10675;47.976;7.824;2022-10-20T12:55:07;6.43;;;3.17;;
21032;SDS011;10675;47.976;7.824;2022-10-20T12:57:43;4.80;;;3.20;;
21032;SDS011;10675;47.976;7.824;2022-10-20T13:20:46;6.00;;;4.03;;
21032;SDS011;10675;47.976;7.824;2022-10-20T13:23:22;6.00;;;4.25;;
21032;SDS011;10675;47.976;7.824;2022-10-20T13:25:51;5.67;;;3.87;;
21032;SDS011;10675;47.976;7.824;2022-10-20T13:28:22;3.80;;;3.40;;
21032;SDS011;10675;47.976;7.824;2022-10-20T13:33:19;7.65;;;4.10;;
21032;SDS011;10675;47.976;7.824;2022-10-20T13:41:05;9.60;;;5.53;;
21032;SDS011;10675;47.976;7.824;2022-10-20T13:43:49;10.70;;;4.97;;
21032;SDS011;10675;47.976;7.824;2022-10-20T13:49:08;7.10;;;5.28;;
21032;SDS011;10675;47.976;7.824;2022-10-20T13:51:50;9.33;;;4.63;;
21032;SDS011;10675;47.976;7.824;2022-10-20T13:54:22;8.98;;;4.55;;
21032;SDS011;10675;47.976;7.824;2022-10-20T13:56:51;5.20;;;3.97;;
21032;SDS011;10675;47.976;7.824;2022-10-20T13:59:18;11.43;;;5.00;;
21032;SDS011;10675;47.976;7.824;2022-10-20T14:01:51;8.52;;;4.85;;
21032;SDS011;10675;47.976;7.824;2022-10-20T14:06:46;7.60;;;4.10;;
21032;SDS011;10675;47.976;7.824;2022-10-20T14:09:16;9.38;;;4.82;;
21032;SDS011;10675;47.976;7.824;2022-10-20T14:11:44;11.30;;;7.40;;
21032;SDS011;10675;47.976;7.824;2022-10-20T14:14:12;8.57;;;6.03;;
21032;SDS011;10675;47.976;7.824;2022-10-20T14:16:40;7.07;;;4.57;;
21032;SDS011;10675;47.976;7.824;2022-10-20T14:19:18;7.27;;;4.43;;
21032;SDS011;10675;47.976;7.824;2022-10-20T14:21:46;7.47;;;4.47;;
21032;SDS011;10675;47.976;7.824;2022-10-20T14:27:02;7.63;;;3.90;;
21032;SDS011;10675;47.976;7.824;2022-10-20T14:29:34;7.18;;;4.18;;
21032;SDS011;10675;47.976;7.824;2022-10-20T14:32:02;14.40;;;4.30;;
21032;SDS011;10675;47.976;7.824;2022-10-20T14:34:30;4.68;;;3.78;;
21032;SDS011;10675;47.976;7.824;2022-10-20T14:36:58;7.00;;;3.80;;
21032;SDS011;10675;47.976;7.824;2022-10-20T14:39:31;5.93;;;3.58;;
21032;SDS011;10675;47.976;7.824;2022-10-20T14:42:17;5.57;;;3.97;;
21032;SDS011;10675;47.976;7.824;2022-10-20T14:44:48;6.70;;;4.53;;
21032;SDS011;10675;47.976;7.824;2022-10-20T14:47:14;5.20;;;4.13;;
21032;SDS011;10675;47.976;7.824;2022-10-20T14:49:42;4.78;;;3.72;;
21032;SDS011;10675;47.976;7.824;2022-10-20T14:52:21;7.35;;;4.25;;
21032;SDS011;10675;47.976;7.824;2022-10-20T14:54:51;6.83;;;4.37;;
21032;SDS011;10675;47.976;7.824;2022-10-20T15:05:20;9.30;;;4.40;;
21032;SDS011;10675;47.976;7.824;2022-10-20T15:07:47;7.57;;;4.25;;
21032;SDS011;10675;47.976;7.824;2022-10-20T15:10:13;5.50;;;3.93;;
21032;SDS011;10675;47.976;7.824;2022-10-20T15:12:41;6.20;;;4.00;;
21032;SDS011;10675;47.976;7.824;2022-10-20T15:17:35;6.03;;;4.50;;
21032;SDS011;10675;47.976;7.824;2022-10-20T15:25:27;6.97;;;4.23;;
21032;SDS011;10675;47.976;7.824;2022-10-20T15:27:54;6.73;;;3.97;;
21032;SDS011;10675;47.976;7.824;2022-10-20T15:30:22;5.43;;;4.00;;
21032;SDS011;10675;47.976;7.824;2022-10-20T15:32:49;9.00;;;4.47;;
21032;SDS011;10675;47.976;7.824;2022-10-20T15:35:17;6.50;;;4.10;;
21032;SDS011;10675;47.976;7.824;2022-10-20T15:37:47;7.23;;;4.87;;
21032;SDS011;10675;47.976;7.824;2022-10-20T15:40:15;7.17;;;4.37;;
21032;SDS011;10675;47.976;7.824;2022-10-20T15:42:41;8.17;;;5.13;;
21032;SDS011;10675;47.976;7.824;2022-10-20T15:45:11;8.50;;;4.33;;
21032;SDS011;10675;47.976;7.824;2022-10-20T15:47:48;7.73;;;4.40;;
21032;SDS011;10675;47.976;7.824;2022-10-20T15:50:16;5.03;;;3.63;;
21032;SDS011;10675;47.976;7.824;2022-10-20T15:52:42;7.27;;;4.40;;
21032;SDS011;10675;47.976;7.824;2022-10-20T15:55:20;6.47;;;4.57;;
21032;SDS011;10675;47.976;7.824;2022-10-20T15:57:53;6.53;;;4.43;;
21032;SDS011;10675;47.976;7.824;2022-10-20T16:00:20;7.30;;;4.67;;
21032;SDS011;10675;47.976;7.824;2022-10-20T16:02:47;7.80;;;4.90;;
21032;SDS011;10675;47.976;7.824;2022-10-20T16:05:14;5.47;;;4.20;;
21032;SDS011;10675;47.976;7.824;2022-10-20T16:07:40;9.40;;;4.73;;
21032;SDS011;10675;47.976;7.824;2022-10-20T16:10:07;7.90;;;4.17;;
21032;SDS011;10675;47.976;7.824;2022-10-20T16:12:35;6.70;;;4.03;;
21032;SDS011;10675;47.976;7.824;2022-10-20T16:15:01;5.90;;;4.10;;
21032;SDS011;10675;47.976;7.824;2022-10-20T16:17:27;6.60;;;4.60;;
21032;SDS011;10675;47.976;7.824;2022-10-20T16:19:53;5.07;;;4.33;;
21032;SDS011;10675;47.976;7.824;2022-10-20T16:22:18;9.33;;;5.13;;
21032;SDS011;10675;47.976;7.824;2022-10-20T16:24:47;8.17;;;4.20;;
21032;SDS011;10675;47.976;7.824;2022-10-20T16:27:13;7.00;;;4.13;;
21032;SDS011;10675;47.976;7.824;2022-10-20T16:29:39;7.77;;;4.93;;
21032;SDS011;10675;47.976;7.824;2022-10-20T16:32:05;6.20;;;4.30;;
21032;SDS011;10675;47.976;7.824;2022-10-20T16:34:31;6.73;;;3.93;;
21032;SDS011;10675;47.976;7.824;2022-10-20T16:36:57;6.03;;;4.20;;
21032;SDS011;10675;47.976;7.824;2022-10-20T16:39:22;7.70;;;4.40;;
21032;SDS011;10675;47.976;7.824;2022-10-20T16:41:48;7.00;;;4.17;;
21032;SDS011;10675;47.976;7.824;2022-10-20T16:44:14;5.70;;;4.20;;
21032;SDS011;10675;47.976;7.824;2022-10-20T16:46:39;7.47;;;4.70;;
21032;SDS011;10675;47.976;7.824;2022-10-20T16:49:05;12.20;;;4.33;;
21032;SDS011;10675;47.976;7.824;2022-10-20T16:51:31;5.63;;;4.43;;
21032;SDS011;10675;47.976;7.824;2022-10-20T16:53:57;8.97;;;4.67;;
21032;SDS011;10675;47.976;7.824;2022-10-20T16:56:23;8.97;;;5.40;;
21032;SDS011;10675;47.976;7.824;2022-10-20T16:58:49;9.37;;;7.07;;
21032;SDS011;10675;47.976;7.824;2022-10-20T17:01:16;10.33;;;5.10;;
21032;SDS011;10675;47.976;7.824;2022-10-20T17:03:44;9.00;;;5.00;;
21032;SDS011;10675;47.976;7.824;2022-10-20T17:06:12;7.53;;;4.90;;
21032;SDS011;10675;47.976;7.824;2022-10-20T17:08:39;8.73;;;5.07;;
21032;SDS011;10675;47.976;7.824;2022-10-20T17:11:06;6.97;;;4.80;;
21032;SDS011;10675;47.976;7.824;2022-10-20T17:13:36;11.50;;;5.07;;
21032;SDS011;10675;47.976;7.824;2022-10-20T17:16:06;10.27;;;5.27;;
21032;SDS011;10675;47.976;7.824;2022-10-20T17:18:36;7.00;;;5.00;;
21032;SDS011;10675;47.976;7.824;2022-10-20T17:21:02;7.90;;;5.47;;
21032;SDS011;10675;47.976;7.824;2022-10-20T17:23:30;9.77;;;4.93;;
21032;SDS011;10675;47.976;7.824;2022-10-20T17:25:58;11.57;;;5.33;;
21032;SDS011;10675;47.976;7.824;2022-10-20T17:28:26;7.93;;;5.27;;